Time;durP1;ratioP1;P1;durP2;ratioP2;P2;SDS_P1;SDS_P2;PMS_P1;PMS_P2;Temp;Humidity;BMP_temperature;BMP_pressure;BME280_temperature;BME280_humidity;BME280_pressure;Samples;Min_cycle;Max_cycle;Signal;HPM_P1;HPM_P2
2023/01/14 00:01:19;;;;;;;29.88;5.13;;;7.50;99.90;;;;;;4962280;28;20049;-58
2023/01/14 00:03:48;;;;;;;27.35;4.50;;;7.50;99.90;;;;;;4975904;28;20048;-58
2023/01/14 00:06:16;;;;;;;19.10;3.85;;;7.50;99.90;;;;;;4999099;28;20195;-54
2023/01/14 00:08:43;;;;;;;27.00;4.25;;;7.50;99.90;;;;;;4982325;28;20931;-59
2023/01/14 00:11:10;;;;;;;21.17;3.22;;;7.60;99.90;;;;;;5001773;28;20431;-57
2023/01/14 00:13:38;;;;;;;18.05;4.10;;;7.60;99.90;;;;;;5005562;28;20045;-54
2023/01/14 00:16:05;;;;;;;19.38;4.25;;;7.70;99.90;;;;;;4981222;28;20501;-56
2023/01/14 00:18:33;;;;;;;25.10;4.88;;;7.70;99.90;;;;;;4971765;28;20504;-58
2023/01/14 00:21:09;;;;;;;19.95;3.80;;;7.70;99.90;;;;;;5001338;28;20037;-56
2023/01/14 00:23:35;;;;;;;22.98;4.28;;;7.80;99.90;;;;;;4985565;28;20035;-57
2023/01/14 00:26:15;;;;;;;19.70;3.38;;;7.80;99.90;;;;;;4988210;28;20468;-57
2023/01/14 00:28:45;;;;;;;17.17;3.35;;;7.80;99.90;;;;;;4970886;28;20108;-56
2023/01/14 00:31:19;;;;;;;25.52;4.15;;;7.80;99.90;;;;;;5005912;28;20389;-55
2023/01/14 00:33:47;;;;;;;21.95;3.92;;;7.80;99.90;;;;;;4990810;28;20317;-55
2023/01/14 00:36:19;;;;;;;20.98;3.67;;;7.90;99.90;;;;;;4999307;28;20273;-56
2023/01/14 00:38:45;;;;;;;22.58;3.53;;;7.90;99.90;;;;;;4982216;28;20247;-58
2023/01/14 00:41:10;;;;;;;21.48;4.07;;;7.80;99.90;;;;;;4969447;28;20508;-56
2023/01/14 00:43:38;;;;;;;16.95;3.63;;;7.90;99.90;;;;;;4986052;28;20496;-56
2023/01/14 00:46:06;;;;;;;22.05;3.95;;;7.90;99.90;;;;;;5001288;28;20042;-57
2023/01/14 00:48:36;;;;;;;22.90;3.45;;;7.90;99.90;;;;;;5001743;28;20520;-57
2023/01/14 00:51:03;;;;;;;22.15;3.83;;;7.90;99.90;;;;;;4981404;28;20045;-56
2023/01/14 00:53:32;;;;;;;19.15;3.75;;;7.90;99.90;;;;;;5000887;28;20059;-57
2023/01/14 00:55:58;;;;;;;22.65;3.45;;;7.90;99.90;;;;;;4967893;28;20092;-57
2023/01/14 00:58:24;;;;;;;21.17;3.15;;;7.90;99.90;;;;;;4983311;28;20069;-57
2023/01/14 01:00:52;;;;;;;26.40;4.78;;;7.90;99.90;;;;;;4969948;28;20045;-55
2023/01/14 01:03:18;;;;;;;15.80;3.20;;;7.90;99.90;;;;;;4984847;28;20041;-55
2023/01/14 01:05:44;;;;;;;24.05;4.22;;;7.90;99.90;;;;;;4985072;28;20404;-57
2023/01/14 01:08:13;;;;;;;16.13;3.13;;;7.90;99.90;;;;;;4995539;28;20048;-55
2023/01/14 01:10:41;;;;;;;18.58;3.70;;;7.90;99.90;;;;;;4980622;28;20069;-55
2023/01/14 01:13:06;;;;;;;19.52;3.63;;;7.90;99.90;;;;;;4997669;28;20216;-57
2023/01/14 01:15:36;;;;;;;26.08;3.97;;;7.90;99.90;;;;;;4996882;28;20033;-57
2023/01/14 01:18:03;;;;;;;28.25;4.75;;;7.90;99.90;;;;;;4977351;28;20030;-58
2023/01/14 01:20:33;;;;;;;25.48;3.80;;;7.90;99.90;;;;;;5000052;28;20451;-56
2023/01/14 01:23:02;;;;;;;26.42;3.95;;;7.90;99.90;;;;;;5000227;28;20093;-53
2023/01/14 01:25:28;;;;;;;24.95;3.85;;;7.90;99.90;;;;;;4971045;28;20049;-56
2023/01/14 01:27:58;;;;;;;25.75;4.15;;;7.90;99.90;;;;;;4997163;28;20038;-57
2023/01/14 01:30:25;;;;;;;27.92;4.85;;;7.90;99.90;;;;;;4977822;28;20057;-57
2023/01/14 01:32:53;;;;;;;25.55;5.22;;;7.90;99.90;;;;;;4980970;28;20158;-58
2023/01/14 01:35:20;;;;;;;31.02;3.70;;;7.90;99.90;;;;;;4978612;28;20473;-58
2023/01/14 01:37:46;;;;;;;24.83;3.50;;;7.90;99.90;;;;;;5000167;28;20050;-57
2023/01/14 01:40:15;;;;;;;24.05;5.05;;;7.90;99.90;;;;;;4994887;28;20505;-57
2023/01/14 01:42:56;;;;;;;23.75;5.47;;;7.90;99.90;;;;;;5000796;28;20046;-58
2023/01/14 01:45:52;;;;;;;22.48;4.20;;;7.90;99.90;;;;;;4981054;28;20576;-57
2023/01/14 01:48:31;;;;;;;19.45;4.35;;;7.90;99.90;;;;;;4981681;28;20479;-57
2023/01/14 01:51:09;;;;;;;32.10;4.95;;;8.00;99.90;;;;;;4990224;28;20033;-57
2023/01/14 01:53:39;;;;;;;19.92;4.10;;;7.90;99.90;;;;;;5002229;28;20612;-57
2023/01/14 01:56:06;;;;;;;19.92;4.47;;;7.90;99.90;;;;;;4997887;28;20038;-58
2023/01/14 01:58:35;;;;;;;29.65;4.65;;;7.90;99.90;;;;;;4998079;28;20037;-56
2023/01/14 02:01:01;;;;;;;20.70;3.90;;;7.90;99.90;;;;;;4982191;28;20508;-57
2023/01/14 02:03:36;;;;;;;24.45;3.97;;;7.90;99.90;;;;;;4998956;28;20113;-57
2023/01/14 02:06:02;;;;;;;23.70;4.45;;;7.90;99.90;;;;;;5000376;28;20038;-58
2023/01/14 02:08:28;;;;;;;23.95;4.10;;;7.80;99.90;;;;;;4976704;28;20033;-56
2023/01/14 02:11:23;;;;;;;23.80;4.32;;;7.80;99.90;;;;;;4995050;28;20030;-58
2023/01/14 02:14:17;;;;;;;21.10;3.90;;;7.80;99.90;;;;;;4999905;28;20129;-56
2023/01/14 02:16:42;;;;;;;22.00;3.95;;;7.80;99.90;;;;;;4978833;28;20120;-57
2023/01/14 02:19:15;;;;;;;20.10;4.57;;;7.80;99.90;;;;;;4995674;28;20045;-58
2023/01/14 02:22:10;;;;;;;31.00;5.27;;;7.80;99.90;;;;;;4997109;28;20128;-57
2023/01/14 02:24:53;;;;;;;23.67;3.88;;;7.80;99.90;;;;;;4965616;28;20058;-57
2023/01/14 02:27:41;;;;;;;25.85;4.97;;;7.70;99.90;;;;;;5000038;28;20038;-58
2023/01/14 02:30:33;;;;;;;33.45;4.88;;;7.70;99.90;;;;;;5004870;28;20194;-56
2023/01/14 02:33:10;;;;;;;30.52;4.93;;;7.70;99.90;;;;;;4987073;28;20038;-55
2023/01/14 02:35:58;;;;;;;19.52;3.80;;;7.70;99.90;;;;;;4982189;28;20049;-57
2023/01/14 02:38:44;;;;;;;25.52;4.13;;;7.60;99.90;;;;;;4982307;28;20041;-57
2023/01/14 02:44:38;;;;;;;29.52;5.38;;;7.60;99.90;;;;;;4996605;28;20042;-58
2023/01/14 02:47:16;;;;;;;18.67;3.30;;;7.60;99.90;;;;;;4996411;28;20080;-59
2023/01/14 02:49:44;;;;;;;23.02;3.63;;;7.50;99.90;;;;;;4997510;28;20043;-58
2023/01/14 02:52:13;;;;;;;16.50;3.50;;;7.60;99.90;;;;;;4997056;28;20108;-58
2023/01/14 02:54:39;;;;;;;29.65;4.53;;;7.60;99.90;;;;;;4982325;28;20129;-56
2023/01/14 02:57:22;;;;;;;20.38;3.97;;;7.60;99.90;;;;;;5000302;28;20049;-58
2023/01/14 03:00:12;;;;;;;25.08;3.60;;;7.60;99.90;;;;;;4980497;28;20038;-58
2023/01/14 03:02:50;;;;;;;17.20;3.45;;;7.60;99.90;;;;;;4997949;28;20122;-58
2023/01/14 03:05:41;;;;;;;19.90;4.57;;;7.50;99.90;;;;;;4994608;28;20328;-57
2023/01/14 03:08:16;;;;;;;31.33;4.65;;;7.50;99.90;;;;;;4998430;28;20034;-57
2023/01/14 03:11:06;;;;;;;18.38;3.95;;;7.40;99.90;;;;;;4997349;28;20030;-58
2023/01/14 03:13:38;;;;;;;25.90;5.15;;;7.40;99.90;;;;;;4980860;28;20463;-58
2023/01/14 03:16:41;;;;;;;22.10;4.40;;;7.40;99.90;;;;;;4990449;28;20074;-57
2023/01/14 03:19:14;;;;;;;20.98;3.83;;;7.40;99.90;;;;;;4997353;28;20120;-58
2023/01/14 03:21:46;;;;;;;26.10;3.63;;;7.30;99.90;;;;;;5001331;28;20099;-58
2023/01/14 03:24:22;;;;;;;21.13;4.00;;;7.30;99.90;;;;;;4995765;28;20355;-57
2023/01/14 03:26:53;;;;;;;21.80;3.83;;;7.30;99.90;;;;;;4996519;28;20134;-58
2023/01/14 03:29:32;;;;;;;19.90;3.78;;;7.30;99.90;;;;;;4977972;28;20044;-56
2023/01/14 03:32:10;;;;;;;18.13;3.13;;;7.20;99.90;;;;;;4995213;28;20153;-57
2023/01/14 03:34:42;;;;;;;20.52;3.35;;;7.20;99.90;;;;;;4976495;28;20038;-57
2023/01/14 03:37:14;;;;;;;25.23;4.65;;;7.20;99.90;;;;;;5001050;28;20117;-58
2023/01/14 03:39:44;;;;;;;24.02;4.57;;;7.20;99.90;;;;;;4978577;28;20061;-58
2023/01/14 03:42:20;;;;;;;25.88;5.72;;;7.10;99.90;;;;;;4978935;28;20184;-56
2023/01/14 03:45:02;;;;;;;17.60;3.60;;;7.10;99.90;;;;;;4997859;28;20042;-55
2023/01/14 03:47:31;;;;;;;19.88;4.47;;;7.10;99.90;;;;;;4995116;28;20080;-60
2023/01/14 03:50:00;;;;;;;21.17;4.30;;;7.00;99.90;;;;;;4981645;28;20081;-58
2023/01/14 03:53:11;;;;;;;23.70;4.10;;;7.00;99.90;;;;;;4996298;28;20054;-56
2023/01/14 03:56:11;;;;;;;29.20;3.47;;;7.00;99.90;;;;;;4987653;28;20058;-56
2023/01/14 03:59:05;;;;;;;19.67;4.15;;;6.90;99.90;;;;;;5007186;28;20132;-56
2023/01/14 04:01:47;;;;;;;19.63;3.63;;;6.90;99.90;;;;;;4988343;28;20128;-56
2023/01/14 04:04:14;;;;;;;26.90;3.88;;;6.80;99.90;;;;;;5010129;28;20277;-56
2023/01/14 04:06:40;;;;;;;24.83;3.70;;;6.80;99.90;;;;;;4983539;28;20120;-56
2023/01/14 04:09:10;;;;;;;23.55;3.63;;;6.80;99.90;;;;;;5014145;28;20112;-57
2023/01/14 04:11:37;;;;;;;23.75;4.05;;;6.80;99.90;;;;;;4981351;28;20042;-57
2023/01/14 04:16:50;;;;;;;20.10;4.05;;;6.70;99.90;;;;;;5000248;28;20627;-57
2023/01/14 04:19:16;;;;;;;29.45;4.20;;;6.70;99.90;;;;;;4984615;28;20046;-57
2023/01/14 04:21:41;;;;;;;16.50;3.28;;;6.70;99.90;;;;;;5000834;28;20369;-57
2023/01/14 04:24:07;;;;;;;20.38;2.92;;;6.60;99.90;;;;;;4981346;28;20057;-56
2023/01/14 04:26:33;;;;;;;25.50;3.95;;;6.60;99.90;;;;;;5005480;28;20327;-55
2023/01/14 04:28:59;;;;;;;26.25;4.05;;;6.60;99.90;;;;;;4988641;28;20045;-56
2023/01/14 04:31:24;;;;;;;19.30;3.60;;;6.70;99.90;;;;;;5003992;23;20100;-60
2023/01/14 04:33:50;;;;;;;26.48;4.78;;;6.60;99.90;;;;;;4973770;28;20050;-58
2023/01/14 04:36:16;;;;;;;19.48;3.58;;;6.70;99.90;;;;;;4985446;28;20038;-59
2023/01/14 04:38:45;;;;;;;29.73;5.03;;;6.70;99.90;;;;;;5005264;28;20116;-60
2023/01/14 04:42:26;;;;;;;22.58;3.67;;;6.70;99.90;;;;;;4981283;28;20042;-60
2023/01/14 04:43:57;;;;;;;26.88;4.30;;;6.70;99.90;;;;;;4972524;28;20049;-60
2023/01/14 04:46:23;;;;;;;18.50;3.60;;;6.70;99.90;;;;;;4974270;28;20100;-59
2023/01/14 04:48:49;;;;;;;26.20;4.13;;;6.70;99.90;;;;;;4986144;28;20038;-60
2023/01/14 04:51:14;;;;;;;21.95;4.00;;;6.70;99.90;;;;;;4967010;28;20097;-61
2023/01/14 04:53:40;;;;;;;23.10;4.05;;;6.60;99.90;;;;;;4994932;28;20107;-60
2023/01/14 04:56:09;;;;;;;23.17;4.30;;;6.60;99.90;;;;;;4998680;28;20033;-61
2023/01/14 04:58:37;;;;;;;30.27;4.82;;;6.60;99.90;;;;;;4984044;28;20370;-57
2023/01/14 05:01:03;;;;;;;22.48;3.60;;;6.60;99.90;;;;;;4991922;28;20104;-60
2023/01/14 05:03:28;;;;;;;22.00;5.10;;;6.50;99.90;;;;;;4971603;28;20041;-60
2023/01/14 05:05:57;;;;;;;22.58;4.03;;;6.50;99.90;;;;;;4979456;28;20479;-61
2023/01/14 05:08:25;;;;;;;18.60;3.53;;;6.50;99.90;;;;;;4991141;28;20306;-61
2023/01/14 05:10:51;;;;;;;21.20;4.15;;;6.50;99.90;;;;;;4986981;28;20440;-60
2023/01/14 05:13:17;;;;;;;24.92;4.38;;;6.50;99.90;;;;;;4964001;28;20046;-61
2023/01/14 05:15:44;;;;;;;19.48;3.30;;;6.40;99.90;;;;;;4994688;28;20051;-62
2023/01/14 05:18:12;;;;;;;17.73;4.20;;;6.40;99.90;;;;;;4990600;28;20420;-60
2023/01/14 05:20:38;;;;;;;26.17;3.38;;;6.40;99.90;;;;;;4991965;28;20049;-60
2023/01/14 05:23:22;;;;;;;26.52;3.60;;;6.40;99.90;;;;;;4984839;28;20042;-60
2023/01/14 05:25:50;;;;;;;21.13;4.47;;;6.40;99.90;;;;;;4983270;28;20037;-61
2023/01/14 05:28:18;;;;;;;22.63;3.70;;;6.30;99.90;;;;;;4974411;28;20088;-60
2023/01/14 05:30:44;;;;;;;21.50;3.95;;;6.30;99.90;;;;;;4960229;28;20045;-60
2023/01/14 05:33:10;;;;;;;18.63;3.25;;;6.30;99.90;;;;;;4982440;28;20050;-60
2023/01/14 05:35:36;;;;;;;20.27;3.58;;;6.30;99.90;;;;;;4981107;28;20432;-60
2023/01/14 05:38:04;;;;;;;21.33;3.45;;;6.10;99.90;;;;;;4999264;28;20041;-59
2023/01/14 05:40:30;;;;;;;18.15;3.20;;;6.30;99.90;;;;;;4982394;28;20080;-61
2023/01/14 05:45:41;;;;;;;;;;;6.10;99.90;;;;;;4994561;28;20050;-60
2023/01/14 05:48:24;;;;;;;23.95;4.05;;;6.30;99.90;;;;;;4984949;28;19917;-61
2023/01/14 05:50:55;;;;;;;22.95;4.40;;;6.30;99.90;;;;;;4984257;28;20038;-59
2023/01/14 05:53:24;;;;;;;;;;;6.30;99.90;;;;;;4988212;28;20045;-59
2023/01/14 05:55:52;;;;;;;26.08;4.43;;;6.40;99.90;;;;;;4983169;28;20134;-61
2023/01/14 05:58:18;;;;;;;22.08;4.45;;;6.30;99.90;;;;;;4983067;28;20037;-61
2023/01/14 06:06:21;;;;;;;22.08;4.60;;;6.30;99.90;;;;;;4964872;28;20386;-62
2023/01/14 06:08:52;;;;;;;19.95;4.00;;;6.30;99.90;;;;;;4979130;28;20121;-60
2023/01/14 06:11:19;;;;;;;27.48;5.03;;;6.30;99.90;;;;;;4976525;28;20129;-61
2023/01/14 06:13:49;;;;;;;23.08;4.70;;;6.30;99.90;;;;;;4982228;28;20463;-62
2023/01/14 06:16:16;;;;;;;23.88;5.38;;;6.30;99.90;;;;;;4984773;28;20358;-62
2023/01/14 06:18:42;;;;;;;25.88;6.18;;;6.40;99.90;;;;;;4980342;28;20085;-60
2023/01/14 06:21:10;;;;;;;30.48;4.97;;;6.40;99.90;;;;;;4995239;28;20042;-59
2023/01/14 06:23:36;;;;;;;22.33;4.47;;;6.40;99.90;;;;;;4996262;28;20029;-61
2023/01/14 06:26:02;;;;;;;23.77;5.18;;;6.40;99.90;;;;;;4970448;28;20176;-61
2023/01/14 06:28:28;;;;;;;33.90;6.18;;;6.40;99.90;;;;;;4963910;28;20378;-60
2023/01/14 06:30:54;;;;;;;30.98;5.47;;;6.40;99.90;;;;;;4983061;28;20038;-61
2023/01/14 06:33:20;;;;;;;26.23;4.88;;;6.40;99.90;;;;;;4994210;28;20152;-62
2023/01/14 06:35:46;;;;;;;34.20;5.85;;;6.30;99.90;;;;;;4984505;28;20048;-62
2023/01/14 06:38:19;;;;;;;23.08;5.82;;;6.30;99.90;;;;;;4985380;28;20042;-62
2023/01/14 06:40:44;;;;;;;23.08;5.70;;;6.30;99.90;;;;;;5001736;28;20121;-60
2023/01/14 06:43:10;;;;;;;25.17;6.05;;;6.30;99.90;;;;;;4983501;28;20191;-60
2023/01/14 06:45:36;;;;;;;27.23;5.93;;;6.30;99.90;;;;;;4983973;28;20129;-58
2023/01/14 06:48:02;;;;;;;40.58;6.47;;;6.30;99.90;;;;;;4976751;28;20089;-60
2023/01/14 06:50:28;;;;;;;22.08;4.60;;;6.40;99.90;;;;;;4983441;28;20041;-61
2023/01/14 06:52:58;;;;;;;27.85;5.82;;;6.40;99.90;;;;;;4965565;28;20057;-59
2023/01/14 06:55:24;;;;;;;28.38;5.85;;;6.40;99.90;;;;;;4991881;28;21142;-59
2023/01/14 06:57:49;;;;;;;25.35;5.75;;;6.40;99.90;;;;;;4980652;28;20132;-61
2023/01/14 07:00:16;;;;;;;23.13;7.00;;;6.40;99.90;;;;;;4967034;28;20034;-62
2023/01/14 07:02:41;;;;;;;26.42;6.25;;;6.40;99.90;;;;;;4982062;28;20481;-61
2023/01/14 07:05:07;;;;;;;31.83;7.05;;;6.40;99.90;;;;;;4965976;28;20107;-58
2023/01/14 07:07:33;;;;;;;27.73;7.32;;;6.40;99.90;;;;;;4980895;28;20227;-62
2023/01/14 07:09:59;;;;;;;29.58;7.15;;;6.50;99.90;;;;;;4979909;28;20088;-60
2023/01/14 07:12:25;;;;;;;31.80;6.82;;;6.50;99.90;;;;;;4981413;28;20124;-62
2023/01/14 07:14:50;;;;;;;31.08;8.05;;;6.50;99.90;;;;;;4985419;28;20535;-61
2023/01/14 07:17:19;;;;;;;33.85;7.85;;;6.50;99.90;;;;;;4980882;28;20235;-62
2023/01/14 07:19:44;;;;;;;37.33;7.80;;;6.50;99.90;;;;;;4982111;28;20045;-61
2023/01/14 07:22:10;;;;;;;28.17;7.00;;;6.50;99.90;;;;;;4960007;28;20038;-62
2023/01/14 07:24:37;;;;;;;27.92;7.32;;;6.50;99.90;;;;;;4983982;28;20471;-61
2023/01/14 07:27:04;;;;;;;37.13;8.20;;;6.50;99.90;;;;;;4998105;28;20074;-62
2023/01/14 07:29:30;;;;;;;35.40;8.15;;;6.50;99.90;;;;;;4983645;28;20548;-63
2023/01/14 07:31:56;;;;;;;25.77;9.75;;;6.60;99.90;;;;;;4987146;28;20064;-61
2023/01/14 07:34:24;;;;;;;32.30;7.57;;;6.60;99.90;;;;;;4985609;28;20141;-62
2023/01/14 07:36:50;;;;;;;32.10;8.43;;;6.60;99.90;;;;;;4980631;28;20089;-59
2023/01/14 07:39:19;;;;;;;29.83;7.07;;;6.60;99.90;;;;;;4980218;28;20406;-61
2023/01/14 07:41:45;;;;;;;31.15;7.43;;;6.60;99.90;;;;;;4984356;28;20133;-59
2023/01/14 07:44:10;;;;;;;28.50;6.85;;;6.60;99.90;;;;;;4983856;28;20034;-61
2023/01/14 07:46:36;;;;;;;30.25;6.50;;;6.60;99.90;;;;;;4987274;28;20046;-62
2023/01/14 07:49:02;;;;;;;31.58;8.27;;;6.60;99.90;;;;;;4983044;28;20033;-60
2023/01/14 07:51:27;;;;;;;33.63;8.38;;;6.60;99.90;;;;;;4968366;28;20473;-61
2023/01/14 07:53:53;;;;;;;31.38;7.55;;;6.60;99.90;;;;;;4967291;28;20539;-61
2023/01/14 07:56:19;;;;;;;25.23;6.70;;;6.60;99.90;;;;;;4983227;28;20045;-62
2023/01/14 07:58:47;;;;;;;29.73;6.90;;;6.70;99.90;;;;;;4985578;28;20119;-61
2023/01/14 08:01:15;;;;;;;23.02;6.53;;;6.70;99.90;;;;;;4983249;28;20034;-62
2023/01/14 08:03:41;;;;;;;26.15;7.03;;;6.70;99.90;;;;;;4966969;28;20467;-62
2023/01/14 08:06:10;;;;;;;29.45;7.40;;;6.70;99.90;;;;;;4985043;28;20041;-62
2023/01/14 08:08:35;;;;;;;35.45;6.93;;;6.70;99.90;;;;;;4982999;28;20050;-62
2023/01/14 08:11:02;;;;;;;35.00;7.05;;;6.70;99.90;;;;;;4976819;28;20041;-61
2023/01/14 08:13:28;;;;;;;32.45;6.00;;;6.70;99.90;;;;;;4981584;28;20467;-61
2023/01/14 08:15:54;;;;;;;28.48;5.63;;;6.70;99.90;;;;;;4984152;28;20124;-61
2023/01/14 08:18:20;;;;;;;22.92;5.60;;;6.70;99.90;;;;;;4970665;28;20474;-62
2023/01/14 08:20:46;;;;;;;27.88;5.65;;;6.70;99.90;;;;;;4980230;28;20042;-59
2023/01/14 08:23:12;;;;;;;34.70;5.95;;;6.70;99.90;;;;;;4994662;28;20046;-61
2023/01/14 08:25:40;;;;;;;33.47;6.88;;;6.70;99.90;;;;;;4978943;28;20049;-62
2023/01/14 08:28:08;;;;;;;35.80;7.15;;;6.70;99.90;;;;;;4977300;28;20050;-62
2023/01/14 08:30:34;;;;;;;29.13;5.50;;;6.70;99.90;;;;;;4964562;28;20052;-61
2023/01/14 08:33:00;;;;;;;25.77;5.35;;;6.70;99.90;;;;;;4983225;28;20041;-61
2023/01/14 08:35:25;;;;;;;27.05;6.22;;;6.70;99.90;;;;;;4962825;28;20050;-60
2023/01/14 08:37:51;;;;;;;26.08;4.97;;;6.70;99.90;;;;;;4966548;28;20134;-61
2023/01/14 08:40:18;;;;;;;34.88;6.47;;;6.70;99.90;;;;;;4980183;28;20471;-59
2023/01/14 08:42:44;;;;;;;25.83;4.85;;;6.70;99.90;;;;;;4976031;28;20503;-62
2023/01/14 08:45:13;;;;;;;23.88;5.10;;;6.70;99.90;;;;;;4987155;28;20510;-62
2023/01/14 08:47:39;;;;;;;24.05;4.68;;;6.70;99.90;;;;;;4990627;28;20030;-61
2023/01/14 08:50:08;;;;;;;36.60;5.65;;;6.70;99.90;;;;;;4988434;28;20062;-62
2023/01/14 08:52:36;;;;;;;25.33;5.10;;;6.70;99.90;;;;;;4984243;28;20496;-61
2023/01/14 08:55:05;;;;;;;29.15;5.43;;;6.60;99.90;;;;;;4982625;28;20645;-61
2023/01/14 08:57:31;;;;;;;26.00;5.53;;;6.60;99.90;;;;;;4984517;28;20050;-59
2023/01/14 08:59:56;;;;;;;26.48;5.32;;;6.60;99.90;;;;;;4964929;28;20049;-61
2023/01/14 09:02:22;;;;;;;29.35;5.55;;;6.60;99.90;;;;;;4973600;28;20045;-60
2023/01/14 09:04:48;;;;;;;26.80;5.78;;;6.60;99.90;;;;;;4981975;28;20050;-61
2023/01/14 09:18:13;;;;;;;33.00;5.50;;;6.60;99.90;;;;;;4979312;28;20049;-60
2023/01/14 09:20:40;;;;;;;28.52;6.38;;;6.60;99.90;;;;;;4959506;28;20034;-60
2023/01/14 09:23:08;;;;;;;27.80;4.88;;;6.60;99.90;;;;;;4985587;28;20102;-59
2023/01/14 09:25:34;;;;;;;19.90;4.80;;;6.60;99.90;;;;;;4985226;28;20137;-59
2023/01/14 09:28:03;;;;;;;24.88;4.75;;;6.60;99.90;;;;;;5001819;28;20227;-61
2023/01/14 09:30:29;;;;;;;22.48;6.07;;;6.60;99.90;;;;;;4986470;28;20048;-59
2023/01/14 09:32:58;;;;;;;21.13;6.00;;;6.60;99.90;;;;;;4980247;28;20243;-62
2023/01/14 09:35:24;;;;;;;18.30;4.53;;;6.60;99.90;;;;;;4999355;28;20073;-61
2023/01/14 09:37:49;;;;;;;23.27;4.22;;;6.60;99.90;;;;;;4989790;28;20143;-58
2023/01/14 09:40:15;;;;;;;21.52;4.55;;;6.60;99.90;;;;;;4987401;28;20054;-59
2023/01/14 09:42:47;;;;;;;17.38;4.03;;;6.60;99.90;;;;;;4985393;28;20517;-60
2023/01/14 09:45:31;;;;;;;14.93;3.20;;;6.60;99.90;;;;;;4976373;28;20397;-61
2023/01/14 09:48:01;;;;;;;17.95;4.70;;;6.60;99.90;;;;;;4986883;28;20476;-61
2023/01/14 09:51:05;;;;;;;18.70;4.03;;;6.60;99.90;;;;;;4998728;28;20120;-61
2023/01/14 09:53:35;;;;;;;14.45;3.50;;;6.70;99.90;;;;;;4999916;28;20045;-59
2023/01/14 09:56:33;;;;;;;18.10;3.47;;;6.70;99.90;;;;;;4986354;28;20067;-61
2023/01/14 09:59:06;;;;;;;14.77;3.40;;;6.70;99.90;;;;;;4977006;28;20057;-60
2023/01/14 10:01:44;;;;;;;12.23;3.42;;;6.70;99.90;;;;;;4968571;28;20514;-59
2023/01/14 10:04:40;;;;;;;10.55;3.03;;;6.70;99.90;;;;;;4981997;28;20104;-62
2023/01/14 10:07:11;;;;;;;20.55;4.07;;;6.70;99.90;;;;;;4988280;28;20057;-62
2023/01/14 10:09:52;;;;;;;8.95;3.13;;;6.70;99.90;;;;;;4960197;28;20048;-61
2023/01/14 10:12:36;;;;;;;13.13;3.10;;;6.80;99.90;;;;;;4979112;28;20052;-62
2023/01/14 10:15:32;;;;;;;16.90;3.38;;;6.80;99.90;;;;;;4979392;28;20050;-61
2023/01/14 10:18:18;;;;;;;9.48;3.00;;;6.80;99.90;;;;;;4996408;28;20124;-59
2023/01/14 10:20:53;;;;;;;12.15;3.50;;;6.80;99.90;;;;;;4978034;28;20038;-58
2023/01/14 10:23:37;;;;;;;10.18;2.70;;;6.90;99.90;;;;;;4958969;28;20046;-59
2023/01/14 10:26:18;;;;;;;12.07;3.53;;;6.90;99.90;;;;;;4990585;28;20440;-60
2023/01/14 10:28:46;;;;;;;11.25;3.10;;;6.90;99.90;;;;;;4981600;28;20096;-61
2023/01/14 10:31:36;;;;;;;10.35;2.50;;;7.00;99.90;;;;;;4994662;28;20128;-59
2023/01/14 10:34:01;;;;;;;8.77;3.05;;;7.00;99.90;;;;;;4957408;28;20038;-60
2023/01/14 10:36:30;;;;;;;10.27;2.50;;;7.00;99.90;;;;;;4977051;28;20056;-61
2023/01/14 10:39:02;;;;;;;6.78;2.50;;;7.00;99.90;;;;;;5020997;22;20053;-60
2023/01/14 10:44:29;;;;;;;6.07;2.78;;;7.20;99.90;;;;;;4988350;28;20037;-60
2023/01/14 10:47:00;;;;;;;5.78;2.65;;;7.20;99.90;;;;;;4980410;28;20056;-60
2023/01/14 10:49:54;;;;;;;7.75;3.33;;;7.30;99.90;;;;;;4989983;28;20033;-62
2023/01/14 10:52:20;;;;;;;6.32;2.10;;;7.30;99.90;;;;;;4977400;28;20056;-62
2023/01/14 10:55:03;;;;;;;8.18;2.30;;;7.30;99.90;;;;;;4997530;28;20045;-62
2023/01/14 10:57:34;;;;;;;8.68;2.88;;;7.30;99.90;;;;;;4997714;28;20083;-62
2023/01/14 11:00:00;;;;;;;7.97;2.45;;;7.30;99.90;;;;;;4994751;28;20073;-61
2023/01/14 11:02:38;;;;;;;7.18;2.38;;;7.30;99.90;;;;;;4965785;28;20038;-62
2023/01/14 11:05:21;;;;;;;4.80;2.38;;;7.40;99.90;;;;;;5007995;28;20057;-61
2023/01/14 11:07:50;;;;;;;8.63;2.60;;;7.40;99.90;;;;;;4985420;28;20038;-62
2023/01/14 11:10:21;;;;;;;9.68;2.45;;;7.40;99.90;;;;;;4999625;28;20042;-61
2023/01/14 11:12:47;;;;;;;7.20;2.30;;;7.40;99.90;;;;;;5008345;28;20125;-61
2023/01/14 11:15:38;;;;;;;5.78;2.05;;;7.40;99.90;;;;;;4995313;28;20128;-61
2023/01/14 11:18:19;;;;;;;4.72;1.98;;;7.40;99.90;;;;;;5007992;28;20041;-62
2023/01/14 11:21:06;;;;;;;6.63;2.53;;;7.40;99.90;;;;;;4994204;28;20045;-63
2023/01/14 11:23:38;;;;;;;8.35;2.38;;;7.40;99.90;;;;;;4997811;28;20516;-61
2023/01/14 11:26:24;;;;;;;5.85;1.98;;;7.40;99.90;;;;;;5003924;28;20085;-61
2023/01/14 11:28:52;;;;;;;6.32;2.00;;;7.50;99.90;;;;;;4987989;28;20067;-62
2023/01/14 11:31:36;;;;;;;7.28;2.75;;;7.50;99.90;;;;;;4969369;28;20058;-60
2023/01/14 11:34:02;;;;;;;6.45;1.80;;;7.50;99.90;;;;;;4998543;28;20447;-62
2023/01/14 11:36:31;;;;;;;4.97;2.08;;;7.50;99.90;;;;;;5003259;28;20065;-61
2023/01/14 11:38:59;;;;;;;4.10;1.98;;;7.50;99.90;;;;;;5000217;28;20124;-60
2023/01/14 11:41:38;;;;;;;5.22;2.58;;;7.50;99.90;;;;;;4992108;28;20656;-62
2023/01/14 11:44:22;;;;;;;5.07;2.45;;;7.50;99.90;;;;;;4965359;28;20042;-61
2023/01/14 11:47:06;;;;;;;;;;;7.60;99.90;;;;;;4995693;28;20165;-62
2023/01/14 11:49:32;;;;;;;5.70;2.53;;;7.60;99.90;;;;;;5003261;28;19921;-59
2023/01/14 11:52:03;;;;;;;4.70;2.08;;;7.60;99.90;;;;;;4991191;28;20033;-61
2023/01/14 11:54:40;;;;;;;5.28;2.85;;;7.60;99.90;;;;;;4991319;28;20042;-60
2023/01/14 11:57:16;;;;;;;5.28;2.60;;;7.60;99.90;;;;;;4982879;28;20093;-62
2023/01/14 11:59:46;;;;;;;6.07;2.15;;;7.60;99.90;;;;;;4979625;28;20058;-61
2023/01/14 12:02:28;;;;;;;4.38;2.20;;;7.60;99.90;;;;;;4980386;28;20501;-62
2023/01/14 12:05:00;;;;;;;3.55;2.38;;;7.70;99.90;;;;;;5010712;28;20562;-62
2023/01/14 12:07:37;;;;;;;6.95;1.95;;;7.70;99.90;;;;;;4977154;28;20557;-62
2023/01/14 12:10:22;;;;;;;6.55;2.00;;;7.70;99.90;;;;;;4982639;28;20129;-64
2023/01/14 12:18:58;;;;;;;6.13;2.05;;;7.80;99.90;;;;;;5011104;28;20416;-62
2023/01/14 12:21:32;;;;;;;5.88;2.75;;;7.90;99.90;;;;;;4968679;28;20050;-61
2023/01/14 12:24:10;;;;;;;3.10;1.55;;;7.90;99.90;;;;;;4975346;28;20472;-61
2023/01/14 12:26:42;;;;;;;5.78;1.90;;;8.00;99.90;;;;;;4971950;28;20045;-59
2023/01/14 12:29:22;;;;;;;4.75;1.60;;;8.00;99.90;;;;;;4975225;28;20046;-62
2023/01/14 12:31:59;;;;;;;6.97;1.70;;;8.00;99.90;;;;;;4971912;28;20088;-61
2023/01/14 12:34:42;;;;;;;4.00;1.65;;;8.10;99.90;;;;;;4993681;28;20086;-61
2023/01/14 12:37:17;;;;;;;5.57;1.70;;;8.10;99.90;;;;;;4949640;28;20081;-60
2023/01/14 12:45:47;;;;;;;5.88;1.60;;;8.30;99.90;;;;;;4993302;28;20464;-60
2023/01/14 12:48:17;;;;;;;3.80;1.55;;;8.30;99.90;;;;;;4972018;28;20042;-62
2023/01/14 12:51:00;;;;;;;3.70;1.55;;;8.40;99.90;;;;;;4984193;28;20081;-61
2023/01/14 12:53:31;;;;;;;4.50;1.58;;;8.40;99.90;;;;;;4988058;28;20495;-62
2023/01/14 12:56:04;;;;;;;2.40;1.30;;;8.50;99.90;;;;;;4976878;28;21457;-62
2023/01/14 12:58:37;;;;;;;2.47;1.10;;;8.50;99.90;;;;;;4977725;28;20030;-61
2023/01/14 13:01:15;;;;;;;5.97;1.75;;;8.50;99.90;;;;;;4989605;28;20253;-61
2023/01/14 13:03:57;;;;;;;4.13;1.20;;;8.60;99.90;;;;;;4959527;28;20049;-59
2023/01/14 13:06:32;;;;;;;4.20;1.42;;;8.60;99.90;;;;;;4970359;28;20256;-59
2023/01/14 13:08:59;;;;;;;2.72;1.50;;;8.70;99.90;;;;;;4971152;28;20065;-61
2023/01/14 13:11:27;;;;;;;2.78;1.27;;;8.70;99.90;;;;;;4955539;28;20041;-62
2023/01/14 13:13:56;;;;;;;4.93;1.50;;;8.70;99.90;;;;;;4958927;28;20489;-60
2023/01/14 13:16:28;;;;;;;2.65;1.35;;;8.80;99.90;;;;;;4991739;28;20050;-62
2023/01/14 13:18:58;;;;;;;3.90;1.42;;;8.90;99.90;;;;;;4970690;28;20076;-62
2023/01/14 13:21:57;;;;;;;2.95;1.38;;;8.90;99.90;;;;;;4994238;28;20499;-61
2023/01/14 13:24:27;;;;;;;3.67;2.05;;;8.90;99.90;;;;;;4980927;28;20408;-62
2023/01/14 13:26:55;;;;;;;2.83;1.27;;;9.00;99.90;;;;;;5004192;28;20070;-62
2023/01/14 13:29:23;;;;;;;3.22;1.60;;;9.10;99.90;;;;;;4956301;28;22126;-62
2023/01/14 13:31:49;;;;;;;2.97;1.40;;;9.10;99.90;;;;;;4996416;28;20397;-62
2023/01/14 13:34:21;;;;;;;2.30;1.27;;;9.10;99.90;;;;;;4953759;28;20140;-62
2023/01/14 13:36:56;;;;;;;3.45;1.48;;;9.20;99.90;;;;;;4976568;28;20041;-60
2023/01/14 13:39:29;;;;;;;4.00;1.60;;;9.20;99.90;;;;;;4968030;28;20029;-62
2023/01/14 13:42:01;;;;;;;2.40;1.50;;;9.30;99.90;;;;;;4970974;28;20277;-61
2023/01/14 13:44:31;;;;;;;3.30;1.67;;;9.30;99.90;;;;;;4972917;28;20726;-61
2023/01/14 13:47:00;;;;;;;4.80;1.60;;;9.40;99.90;;;;;;4998956;28;20056;-62
2023/01/14 13:49:34;;;;;;;3.33;1.52;;;9.40;99.90;;;;;;4979672;28;20133;-62
2023/01/14 13:52:25;;;;;;;2.22;1.30;;;9.50;99.90;;;;;;4993387;28;20074;-62
2023/01/14 13:55:06;;;;;;;3.15;1.50;;;9.50;99.90;;;;;;4990433;28;20097;-63